createdAt,value
2022-09-05T00:02:49.116Z,21.99
2022-09-05T00:05:48.416Z,21.98
2022-09-05T00:08:31.062Z,21.93
2022-09-05T00:11:41.933Z,21.89
2022-09-05T00:14:04.075Z,21.84
2022-09-05T00:16:45.775Z,21.81
2022-09-05T00:22:03.645Z,21.81
2022-09-05T00:24:32.022Z,21.81
2022-09-05T00:28:08.822Z,21.77
2022-09-05T00:31:08.780Z,21.76
2022-09-05T00:34:00.667Z,21.73
2022-09-05T00:36:34.653Z,21.70
2022-09-05T00:39:05.068Z,21.65
2022-09-05T00:41:34.319Z,21.60
2022-09-05T00:44:02.770Z,21.56
2022-09-05T00:46:31.864Z,21.56
2022-09-05T00:49:09.600Z,21.51
2022-09-05T00:51:40.174Z,21.52
2022-09-05T00:54:28.318Z,21.53
2022-09-05T00:57:22.625Z,21.50
2022-09-05T01:00:22.748Z,21.48
2022-09-05T01:03:12.889Z,21.42
2022-09-05T01:05:49.918Z,21.36
2022-09-05T01:08:32.744Z,21.34
2022-09-05T01:11:05.507Z,21.31
2022-09-05T01:13:39.746Z,21.28
2022-09-05T01:16:11.079Z,21.26
2022-09-05T01:18:49.127Z,21.22
2022-09-05T01:21:56.546Z,21.24
2022-09-05T01:24:57.250Z,21.20
2022-09-05T01:29:13.812Z,21.17
2022-09-05T01:30:32.130Z,21.13
2022-09-05T01:33:07.069Z,21.13
2022-09-05T01:36:04.233Z,21.12
2022-09-05T01:38:36.777Z,21.08
2022-09-05T01:41:18.530Z,21.06
2022-09-05T01:44:11.581Z,21.07
2022-09-05T01:46:43.346Z,21.01
2022-09-05T01:49:20.412Z,20.99
2022-09-05T01:52:23.701Z,20.97
2022-09-05T01:55:04.629Z,20.93
2022-09-05T01:57:38.733Z,20.94
2022-09-05T02:00:10.889Z,20.98
2022-09-05T02:02:50.830Z,20.98
2022-09-05T02:05:48.420Z,20.98
2022-09-05T02:08:38.926Z,20.97
2022-09-05T02:11:10.019Z,20.92
2022-09-05T02:13:46.302Z,20.95
2022-09-05T02:16:19.918Z,20.97
2022-09-05T02:18:53.364Z,20.96
2022-09-05T02:21:25.584Z,20.97
2022-09-05T02:24:02.208Z,20.98
2022-09-05T02:26:32.323Z,20.97
2022-09-05T02:29:01.499Z,20.98
2022-09-05T02:31:37.115Z,20.98
2022-09-05T02:34:09.680Z,20.98
2022-09-05T02:36:41.465Z,20.99
2022-09-05T02:45:02.628Z,20.97
2022-09-05T02:45:17.726Z,20.96
2022-09-05T02:45:24.469Z,20.91
2022-09-05T02:47:55.062Z,20.84
2022-09-05T02:56:02.909Z,20.81
2022-09-05T02:57:34.405Z,20.76
2022-09-05T02:57:43.075Z,20.77
2022-09-05T02:59:36.690Z,20.73
2022-09-05T03:02:25.332Z,20.73
2022-09-05T03:05:04.493Z,20.69
2022-09-05T03:07:45.119Z,20.62
2022-09-05T03:10:34.623Z,20.55
2022-09-05T03:13:58.077Z,20.49
2022-09-05T03:16:53.918Z,20.42
2022-09-05T03:19:46.927Z,20.33
2022-09-05T03:23:00.764Z,20.27
2022-09-05T03:26:01.431Z,20.21
2022-09-05T03:28:57.245Z,20.22
2022-09-05T03:31:35.385Z,20.23
2022-09-05T03:34:27.301Z,20.29
2022-09-05T03:37:22.555Z,20.32
2022-09-05T03:40:15.124Z,20.34
2022-09-05T03:43:03.448Z,20.32
2022-09-05T03:46:00.610Z,20.32
2022-09-05T03:48:38.593Z,20.24
2022-09-05T03:56:36.891Z,20.24
2022-09-05T03:57:13.298Z,20.23
2022-09-05T03:57:41.602Z,20.25
2022-09-05T04:00:20.938Z,20.22
2022-09-05T04:07:03.622Z,20.15
2022-09-05T04:08:24.162Z,20.13
2022-09-05T04:08:46.683Z,20.16
2022-09-05T04:11:16.898Z,20.21
2022-09-05T04:13:49.195Z,20.22
2022-09-05T04:16:20.577Z,20.25
2022-09-05T04:18:52.792Z,20.27
2022-09-05T04:21:24.541Z,20.30
2022-09-05T04:24:10.772Z,20.33
2022-09-05T04:26:57.095Z,20.32
2022-09-05T04:29:28.475Z,20.23
2022-09-05T04:32:18.909Z,20.26
2022-09-05T04:34:55.850Z,20.27
2022-09-05T04:37:48.235Z,20.26
2022-09-05T04:40:40.328Z,20.26
2022-09-05T04:43:10.532Z,20.22
2022-09-05T04:45:40.984Z,20.22
2022-09-05T04:48:12.200Z,20.19
2022-09-05T04:50:51.184Z,20.19
2022-09-05T04:53:21.105Z,20.20
2022-09-05T04:55:51.066Z,20.19
2022-09-05T04:58:24.181Z,20.16
2022-09-05T05:06:02.966Z,20.15
2022-09-05T05:06:12.049Z,20.14
2022-09-05T05:07:06.108Z,20.12
2022-09-05T05:09:38.164Z,20.07
2022-09-05T05:17:55.287Z,20.07
2022-09-05T05:18:13.402Z,20.04
2022-09-05T05:18:16.107Z,19.98
2022-09-05T05:20:44.153Z,19.94
2022-09-05T05:23:14.305Z,19.91
2022-09-05T05:25:46.768Z,19.87
2022-09-05T05:28:24.287Z,19.85
2022-09-05T05:30:58.360Z,19.83
2022-09-05T05:33:30.803Z,19.81
2022-09-05T05:36:00.458Z,19.78
2022-09-05T05:38:32.300Z,19.76
2022-09-05T05:41:03.821Z,19.75
2022-09-05T05:43:36.124Z,19.76
2022-09-05T05:46:04.077Z,19.75
2022-09-05T05:48:37.998Z,19.73
2022-09-05T05:51:34.568Z,19.73
2022-09-05T05:54:25.130Z,19.71
2022-09-05T05:57:22.746Z,19.72
2022-09-05T05:59:59.010Z,19.72
2022-09-05T06:03:26.487Z,19.71
2022-09-05T06:06:07.176Z,19.72
2022-09-05T06:13:06.306Z,19.71
2022-09-05T06:15:01.766Z,19.73
2022-09-05T06:15:52.784Z,19.77
2022-09-05T06:18:49.438Z,19.76
2022-09-05T06:22:13.211Z,19.81
2022-09-05T06:25:17.359Z,19.84
2022-09-05T06:28:17.591Z,19.85
2022-09-05T06:30:46.997Z,19.88
2022-09-05T06:33:22.153Z,19.89
2022-09-05T06:35:59.855Z,19.94
2022-09-05T06:38:44.867Z,19.98
2022-09-05T06:41:25.524Z,20.02
2022-09-05T06:44:26.277Z,20.05
2022-09-05T06:47:23.766Z,20.07
2022-09-05T06:49:54.963Z,20.11
2022-09-05T06:53:08.252Z,20.15
2022-09-05T06:56:07.129Z,20.17
2022-09-05T06:59:12.007Z,20.21
2022-09-05T07:02:00.846Z,20.23
2022-09-05T07:05:24.053Z,20.25
2022-09-05T07:07:24.433Z,20.31
2022-09-05T07:10:00.477Z,20.36
2022-09-05T07:12:30.116Z,20.43
2022-09-05T07:15:08.676Z,20.47
2022-09-05T07:18:09.665Z,20.57
2022-09-05T07:21:16.717Z,20.63
2022-09-05T07:24:08.546Z,20.73
2022-09-05T07:26:53.601Z,20.82
2022-09-05T07:29:24.476Z,20.82
2022-09-05T07:31:57.324Z,20.91
2022-09-05T07:34:26.296Z,20.96
2022-09-05T07:36:57.067Z,21.02
2022-09-05T07:39:45.731Z,21.11
2022-09-05T07:42:15.891Z,21.16
2022-09-05T07:44:47.148Z,21.24
2022-09-05T07:47:20.140Z,21.29
2022-09-05T07:50:41.521Z,21.35
2022-09-05T07:56:47.763Z,21.41
2022-09-05T07:57:01.706Z,21.50
2022-09-05T07:58:19.821Z,21.57
2022-09-05T08:00:52.220Z,21.61
2022-09-05T08:04:05.803Z,21.69
2022-09-05T08:07:49.220Z,21.79
2022-09-05T08:10:57.889Z,21.87
2022-09-05T08:13:38.778Z,21.90
2022-09-05T08:16:34.829Z,21.99
2022-09-05T08:19:36.138Z,22.07
2022-09-05T08:22:38.010Z,22.18
2022-09-05T08:25:56.880Z,22.32
2022-09-05T08:29:11.275Z,22.47
2022-09-05T08:32:20.256Z,22.63
2022-09-05T08:38:53.280Z,22.94
2022-09-05T08:41:51.266Z,23.07
2022-09-05T08:46:41.094Z,23.15
2022-09-05T08:48:01.891Z,23.22
2022-09-05T08:51:20.012Z,23.25
2022-09-05T08:54:31.397Z,23.24
2022-09-05T09:02:45.267Z,23.16
2022-09-05T09:09:32.590Z,23.28
2022-09-05T09:12:45.040Z,23.31
2022-09-05T09:15:37.233Z,23.43
2022-09-05T09:22:49.879Z,23.91
2022-09-05T09:25:41.430Z,24.01
2022-09-05T09:29:22.787Z,24.14
2022-09-05T09:32:17.664Z,24.30
2022-09-05T09:35:08.637Z,24.39
2022-09-05T09:42:36.613Z,24.65
2022-09-05T09:45:45.013Z,24.62
2022-09-05T09:49:03.260Z,24.58
2022-09-05T09:52:46.939Z,24.60
2022-09-05T09:56:08.851Z,24.66
2022-09-05T09:59:54.403Z,24.77
2022-09-05T10:09:16.402Z,24.85
2022-09-05T10:10:49.033Z,24.88
2022-09-05T10:10:58.217Z,24.83
2022-09-05T10:14:24.219Z,24.84
2022-09-05T10:17:55.691Z,24.92
2022-09-05T10:21:33.783Z,24.99
2022-09-05T10:25:15.036Z,25.11
2022-09-05T10:28:33.298Z,25.17
2022-09-05T10:34:45.954Z,25.19
2022-09-05T10:35:13.081Z,25.19
2022-09-05T10:41:29.772Z,25.12
2022-09-05T10:48:35.157Z,25.26
2022-09-05T10:51:31.895Z,25.33
2022-09-05T10:54:51.112Z,25.43
2022-09-05T10:57:54.345Z,25.58
2022-09-05T11:02:21.693Z,25.82
2022-09-05T11:05:32.411Z,25.94
2022-09-05T11:13:05.065Z,25.84
2022-09-05T11:16:32.399Z,25.89
2022-09-05T11:20:03.710Z,25.89
2022-09-05T11:22:44.554Z,25.84
2022-09-05T11:25:54.678Z,25.78
2022-09-05T11:28:59.826Z,25.62
2022-09-05T11:32:56.541Z,25.52
2022-09-05T11:39:50.426Z,25.33
2022-09-05T11:40:02.338Z,25.25
2022-09-05T11:42:14.761Z,25.24
2022-09-05T11:45:24.752Z,25.23
2022-09-05T11:49:02.780Z,25.25
2022-09-05T11:52:31.908Z,25.32
2022-09-05T11:55:55.729Z,25.40
2022-09-05T11:59:05.139Z,25.51
2022-09-05T12:01:44.265Z,25.66
2022-09-05T12:12:39.115Z,27.16
2022-09-05T14:20:27.716Z,27.11
2022-09-05T14:23:07.623Z,27.11
2022-09-05T14:25:41.248Z,27.10
2022-09-05T14:28:23.083Z,26.98
2022-09-05T14:37:34.165Z,26.83
2022-09-05T14:37:42.241Z,26.66
2022-09-05T14:37:55.737Z,26.50
2022-09-05T14:40:30.047Z,26.38
2022-09-05T14:43:46.090Z,26.20
2022-09-05T14:46:49.761Z,25.98
2022-09-05T14:49:28.904Z,25.75
2022-09-05T14:51:58.669Z,25.58
2022-09-05T15:02:38.535Z,25.00
2022-09-05T15:02:52.511Z,24.77
2022-09-05T15:07:16.936Z,24.61
2022-09-05T15:14:16.575Z,24.37
2022-09-05T15:17:06.413Z,24.05
2022-09-05T15:20:06.548Z,23.56
2022-09-05T15:22:37.937Z,23.11
2022-09-05T15:25:18.003Z,22.72
2022-09-05T15:27:46.429Z,22.59
2022-09-05T15:30:22.219Z,22.49
2022-09-05T15:33:16.629Z,22.37
2022-09-05T15:35:45.860Z,22.50
2022-09-05T15:38:27.780Z,22.64
2022-09-05T15:41:25.209Z,22.68
2022-09-05T15:44:14.190Z,22.95
2022-09-05T15:46:47.287Z,23.32
2022-09-05T15:49:51.734Z,23.65
2022-09-05T15:52:39.205Z,24.45
2022-09-05T15:55:13.947Z,24.94
2022-09-05T15:57:47.095Z,25.07
2022-09-05T16:00:42.105Z,25.44
2022-09-05T16:05:35.610Z,25.50
2022-09-05T16:10:35.322Z,25.45
2022-09-05T16:10:42.031Z,25.36
2022-09-05T16:12:19.476Z,25.39
2022-09-05T16:16:50.114Z,25.38
2022-09-05T16:23:17.373Z,25.57
2022-09-05T16:23:28.886Z,25.40
2022-09-05T16:24:08.346Z,25.75
2022-09-05T16:27:05.573Z,25.71
2022-09-05T16:30:26.276Z,25.84
2022-09-05T16:33:37.055Z,25.79
2022-09-05T16:36:37.771Z,25.60
2022-09-05T16:39:46.360Z,25.53
2022-09-05T16:46:31.733Z,25.59
2022-09-05T16:53:30.024Z,26.61
2022-09-05T16:56:35.005Z,26.34
2022-09-05T16:59:43.870Z,26.09
2022-09-05T17:02:46.573Z,25.79
2022-09-05T17:06:13.836Z,25.54
2022-09-05T17:13:53.277Z,24.94
2022-09-05T17:16:35.595Z,24.76
2022-09-05T17:19:14.591Z,25.04
2022-09-05T17:29:32.595Z,26.39
2022-09-05T17:37:42.155Z,27.33
2022-09-05T17:45:21.840Z,26.99
2022-09-05T17:49:25.320Z,27.00
2022-09-05T17:52:48.619Z,26.20
2022-09-05T17:56:24.260Z,25.71
2022-09-05T17:59:09.180Z,25.01
2022-09-05T18:01:44.251Z,24.87
2022-09-05T18:04:45.780Z,24.68
2022-09-05T18:07:59.224Z,24.55
2022-09-05T18:11:02.171Z,24.36
2022-09-05T18:15:05.080Z,24.26
2022-09-05T18:18:02.653Z,24.17
2022-09-05T18:20:55.813Z,23.99
2022-09-05T18:23:54.110Z,23.89
2022-09-05T18:29:18.120Z,23.82
2022-09-05T18:32:02.808Z,23.78
2022-09-05T18:35:10.318Z,23.79
2022-09-05T18:38:49.874Z,23.72
2022-09-05T18:41:22.050Z,23.64
2022-09-05T18:44:13.723Z,23.54
2022-09-05T18:46:45.844Z,23.50
2022-09-05T18:50:12.544Z,23.46
2022-09-05T18:52:43.125Z,23.43
2022-09-05T18:56:10.449Z,23.39
2022-09-05T18:58:52.295Z,23.42
2022-09-05T19:01:31.357Z,23.47
2022-09-05T19:04:06.913Z,23.53
2022-09-05T19:07:07.800Z,23.60
2022-09-05T19:09:37.813Z,23.61
2022-09-05T19:12:32.154Z,23.64
2022-09-05T19:14:55.652Z,23.61
2022-09-05T19:17:27.514Z,23.66
2022-09-05T19:20:31.725Z,23.68
2022-09-05T19:23:10.779Z,23.59
2022-09-05T19:25:46.074Z,23.55
2022-09-05T19:36:53.008Z,23.43
2022-09-05T19:36:56.243Z,23.46
2022-09-05T19:37:14.481Z,23.49
2022-09-05T19:37:42.746Z,23.42
2022-09-05T19:47:27.435Z,23.40
2022-09-05T19:47:39.630Z,23.43
2022-09-05T19:47:42.612Z,23.38
2022-09-05T19:51:55.748Z,23.29
2022-09-05T19:54:28.701Z,23.23
2022-09-05T19:57:09.362Z,23.29
2022-09-05T19:59:55.783Z,23.31
2022-09-05T20:02:25.311Z,23.27
2022-09-05T20:05:01.358Z,23.24
2022-09-05T20:07:35.938Z,23.26
2022-09-05T20:10:05.189Z,23.20
2022-09-05T20:12:40.014Z,23.20
2022-09-05T20:15:43.322Z,23.28
2022-09-05T20:18:23.090Z,23.23
2022-09-05T20:20:55.863Z,23.39
2022-09-05T20:23:26.099Z,23.43
2022-09-05T20:25:54.930Z,23.42
2022-09-05T20:28:27.710Z,23.32
2022-09-05T20:31:34.139Z,23.38
2022-09-05T20:35:32.981Z,23.25
2022-09-05T20:43:28.033Z,23.23
2022-09-05T20:43:32.347Z,23.28
2022-09-05T20:44:01.797Z,23.10
2022-09-05T20:49:00.879Z,22.98
2022-09-05T20:54:16.613Z,22.94
2022-09-05T20:55:38.473Z,22.76
2022-09-05T20:58:31.196Z,22.72
2022-09-05T21:01:25.332Z,22.66
2022-09-05T21:04:05.738Z,22.62
2022-09-05T21:06:36.831Z,22.57
2022-09-05T21:09:22.508Z,22.55
2022-09-05T21:12:27.935Z,22.45
2022-09-05T21:15:30.685Z,22.39
2022-09-05T21:18:03.358Z,22.34
2022-09-05T21:20:40.781Z,22.32
2022-09-05T21:23:21.630Z,22.26
2022-09-05T21:25:54.192Z,22.15
2022-09-05T21:29:07.094Z,22.22
2022-09-05T21:32:00.132Z,22.08
2022-09-05T21:34:33.079Z,22.00
2022-09-05T21:37:08.265Z,22.02
2022-09-05T21:39:38.263Z,21.93
2022-09-05T21:46:08.590Z,21.88
2022-09-05T21:48:03.507Z,21.81
2022-09-05T21:51:09.042Z,21.88
2022-09-05T21:59:16.214Z,21.87
2022-09-05T21:59:21.754Z,21.78
2022-09-05T21:59:46.604Z,21.85
2022-09-05T22:02:17.251Z,21.80
2022-09-05T22:05:10.488Z,21.84
2022-09-05T22:07:38.579Z,21.77
2022-09-05T22:10:16.979Z,21.75
2022-09-05T22:13:00.030Z,21.70
2022-09-05T22:15:34.193Z,21.69
2022-09-05T22:18:17.542Z,21.65
2022-09-05T22:23:02.782Z,21.60
2022-09-05T22:25:33.781Z,21.44
2022-09-05T22:28:12.886Z,21.55
2022-09-05T22:30:42.251Z,21.51
2022-09-05T22:35:55.302Z,21.31
2022-09-05T22:41:48.168Z,21.48
2022-09-05T22:44:16.356Z,21.46
2022-09-05T22:46:44.725Z,21.46
2022-09-05T22:49:14.174Z,21.34
2022-09-05T22:51:42.265Z,21.36
2022-09-05T22:54:26.359Z,21.40
2022-09-05T22:56:54.550Z,21.28
2022-09-05T23:00:02.602Z,21.36
2022-09-05T23:02:32.946Z,21.31
2022-09-05T23:05:11.203Z,21.31
2022-09-05T23:07:39.359Z,21.20
2022-09-05T23:10:22.137Z,21.31
2022-09-05T23:12:51.522Z,21.20
2022-09-05T23:15:19.682Z,21.23
2022-09-05T23:17:59.870Z,21.29
2022-09-05T23:20:28.762Z,21.23
2022-09-05T23:22:58.354Z,21.23
2022-09-05T23:25:27.982Z,21.24
2022-09-05T23:28:14.563Z,21.26
2022-09-05T23:30:42.860Z,21.18
2022-09-05T23:33:12.534Z,21.16
2022-09-05T23:35:41.558Z,21.08
2022-09-05T23:38:13.878Z,21.09
2022-09-05T23:40:45.491Z,21.05
2022-09-05T23:43:13.613Z,20.86
2022-09-05T23:45:42.705Z,20.99
2022-09-05T23:48:10.786Z,20.97
2022-09-05T23:50:41.654Z,20.93
2022-09-05T23:53:10.750Z,20.93
2022-09-05T23:55:41.769Z,20.90
2022-09-05T23:58:14.793Z,20.86
